MSC Susanna — 3ECU4 — position and weather

sailwx.info

Track history (hours):
 
Tides and Currents Weather Stations Pressure Air Temp Water Temp Dewpoint Dewpoint Depression Visibility Wind Speed Wind Dir Waves Ship Positions

MSC Susanna

Last reported at 2015-Apr-08 00:34 UTC. Time now 2015-Apr-19 01:11 UTC.
Position N 30°58' E 032°19'.
Warning: this ship's position is 11 days out of date.

Length 337 m; draft 15.5 m.

Type: Ship (hazmat cat A). MMSI: 371466000.

Date/timePositionNaut miles runAvg speedWind from/ knotsBaromVisibWave heightAir tempDewpointWater temp
2015-Apr-08 00:34N 30°58' E 032°19'11 8.9
2015-Apr-07 23:21N 31°09' E 032°19'27 2.7
2015-Apr-07 13:12N 31°35' E 032°09'34 9.2
2015-Apr-07 09:32N 31°55' E 031°37'1110.8
2015-Apr-07 08:33N 31°59' E 031°26'1110.8
2015-Apr-07 07:33N 32°03' E 031°14'1111.5
2015-Apr-07 06:33N 32°07' E 031°01'1212.0
2015-Apr-07 05:33N 32°12' E 030°48'1312.4
2015-Apr-07 04:32N 32°17' E 030°35'1212.1
2015-Apr-07 03:33N 32°21' E 030°22'1212.2
2015-Apr-07 02:33N 32°26' E 030°08'1212.3
2015-Apr-07 01:33N 32°31' E 029°55'1212.3
2015-Apr-07 00:33N 32°35' E 029°41'1212.3
2015-Apr-06 23:33N 32°40' E 029°28'1211.6
2015-Apr-06 22:30N 32°45' E 029°14'1111.3
2015-Apr-06 21:31N 32°49' E 029°02'1311.6
2015-Apr-06 20:25N 32°54' E 028°48'1211.9
2015-Apr-06 19:25N 32°59' E 028°35'1112.3
2015-Apr-06 18:32N 33°03' E 028°23'  
2015-Apr-04 09:24N 38°11' E 015°35'1012.1
2015-Apr-04 08:34N 38°19' E 015°42'14 0.5
2015-Apr-03 06:32N 38°23' E 015°25'1717.6
2015-Apr-03 05:33N 38°19' E 015°03'5418.1
2015-Apr-03 02:33N 38°19' E 013°54'1817.7
2015-Apr-03 01:33N 38°19' E 013°32'1818.0
2015-Apr-03 00:33N 38°19' E 013°09'1817.9
2015-Apr-02 23:33N 38°19' E 012°46'1817.4
2015-Apr-02 22:33N 38°19' E 012°24'55217.1
2015-Apr-01 14:20N 36°38' E 000°59'2218.2
2015-Apr-01 13:08N 36°31' E 000°34'1018.2
2015-Apr-01 12:33N 36°28' E 000°21'2718.6
2015-Apr-01 11:07N 36°21' W 000°11'1317.6
2015-Apr-01 10:24N 36°20' W 000°27'1416.8
2015-Apr-01 09:33N 36°19' W 000°44'21717.9
2015-Mar-31 21:26N 36°00' W 005°11'14117.2
2015-Mar-31 13:13N 36°18' W 008°05'2716.1
2015-Mar-31 11:33N 36°25' W 008°37'1616.4
2015-Mar-31 10:33N 36°29' W 008°57'1616.4
2015-Mar-31 09:33N 36°34' W 009°17'1716.2
2015-Mar-31 08:32N 36°45' W 009°32'1716.7
2015-Mar-31 07:30N 37°02' W 009°37'1716.6
2015-Mar-31 06:29N 37°18' W 009°42'1616.6
2015-Mar-31 05:31N 37°34' W 009°46'1716.5
2015-Mar-31 04:31N 37°50' W 009°51'1616.8
2015-Mar-31 03:33N 38°06' W 009°56'1616.6
2015-Mar-31 02:33N 38°22' W 010°00'1716.6
2015-Mar-31 01:33N 38°38' W 010°05'1716.8
2015-Mar-31 00:33N 38°55' W 010°06'1816.7
2015-Mar-30 23:30N 39°12' W 010°06'1616.9
2015-Mar-30 22:33N 39°28' W 010°06'3416.8
2015-Mar-30 20:33N 40°02' W 010°06'  
Track history (hours):
 
Tides and Currents Weather Stations Pressure Air Temp Water Temp Dewpoint Dewpoint Depression Visibility Wind Speed Wind Dir Waves Ship Positions

MSC Susanna

Last reported at 2015-Apr-08 00:34 UTC. Time now 2015-Apr-19 01:11 UTC.
Position N 30°58' E 032°19'.
Warning: this ship's position is 11 days out of date.

Length 337 m; draft 15.5 m.

Type: Ship (hazmat cat A). MMSI: 371466000.

Date/timePositionNaut miles runAvg speedWind from/ knotsBaromVisibWave heightAir tempDewpointWater temp
2015-Apr-08 00:34N 30°58' E 032°19'11 8.9
2015-Apr-07 23:21N 31°09' E 032°19'27 2.7
2015-Apr-07 13:12N 31°35' E 032°09'34 9.2
2015-Apr-07 09:32N 31°55' E 031°37'1110.8
2015-Apr-07 08:33N 31°59' E 031°26'1110.8
2015-Apr-07 07:33N 32°03' E 031°14'1111.5
2015-Apr-07 06:33N 32°07' E 031°01'1212.0
2015-Apr-07 05:33N 32°12' E 030°48'1312.4
2015-Apr-07 04:32N 32°17' E 030°35'1212.1
2015-Apr-07 03:33N 32°21' E 030°22'1212.2
2015-Apr-07 02:33N 32°26' E 030°08'1212.3
2015-Apr-07 01:33N 32°31' E 029°55'1212.3
2015-Apr-07 00:33N 32°35' E 029°41'1212.3
2015-Apr-06 23:33N 32°40' E 029°28'1211.6
2015-Apr-06 22:30N 32°45' E 029°14'1111.3
2015-Apr-06 21:31N 32°49' E 029°02'1311.6
2015-Apr-06 20:25N 32°54' E 028°48'1211.9
2015-Apr-06 19:25N 32°59' E 028°35'1112.3
2015-Apr-06 18:32N 33°03' E 028°23'  
2015-Apr-04 09:24N 38°11' E 015°35'1012.1
2015-Apr-04 08:34N 38°19' E 015°42'14 0.5
2015-Apr-03 06:32N 38°23' E 015°25'1717.6
2015-Apr-03 05:33N 38°19' E 015°03'5418.1
2015-Apr-03 02:33N 38°19' E 013°54'1817.7
2015-Apr-03 01:33N 38°19' E 013°32'1818.0
2015-Apr-03 00:33N 38°19' E 013°09'1817.9
2015-Apr-02 23:33N 38°19' E 012°46'1817.4
2015-Apr-02 22:33N 38°19' E 012°24'55217.1
2015-Apr-01 14:20N 36°38' E 000°59'2218.2
2015-Apr-01 13:08N 36°31' E 000°34'1018.2
2015-Apr-01 12:33N 36°28' E 000°21'2718.6
2015-Apr-01 11:07N 36°21' W 000°11'1317.6
2015-Apr-01 10:24N 36°20' W 000°27'1416.8
2015-Apr-01 09:33N 36°19' W 000°44'21717.9
2015-Mar-31 21:26N 36°00' W 005°11'14117.2
2015-Mar-31 13:13N 36°18' W 008°05'2716.1
2015-Mar-31 11:33N 36°25' W 008°37'1616.4
2015-Mar-31 10:33N 36°29' W 008°57'1616.4
2015-Mar-31 09:33N 36°34' W 009°17'1716.2
2015-Mar-31 08:32N 36°45' W 009°32'1716.7
2015-Mar-31 07:30N 37°02' W 009°37'1716.6
2015-Mar-31 06:29N 37°18' W 009°42'1616.6
2015-Mar-31 05:31N 37°34' W 009°46'1716.5
2015-Mar-31 04:31N 37°50' W 009°51'1616.8
2015-Mar-31 03:33N 38°06' W 009°56'1616.6
2015-Mar-31 02:33N 38°22' W 010°00'1716.6
2015-Mar-31 01:33N 38°38' W 010°05'1716.8
2015-Mar-31 00:33N 38°55' W 010°06'1816.7
2015-Mar-30 23:30N 39°12' W 010°06'1616.9
2015-Mar-30 22:33N 39°28' W 010°06'3416.8
2015-Mar-30 20:33N 40°02' W 010°06'  

Dump ship's entire track history